Time;durP1;ratioP1;P1;durP2;ratioP2;P2;SDS_P1;SDS_P2;PMS_P1;PMS_P2;Temp;Humidity;BMP_temperature;BMP_pressure;BME280_temperature;BME280_humidity;BME280_pressure;Samples;Min_cycle;Max_cycle;Signal;HPM_P1;HPM_P2
2022/12/07 00:01:42;;;;;;;27.10;17.83;;;6.40;99.90;;;;;;5059817;28;20442;-82
2022/12/07 00:04:12;;;;;;;26.03;18.73;;;6.40;99.90;;;;;;5043185;28;20461;-81
2022/12/07 00:06:41;;;;;;;23.27;18.67;;;6.30;99.90;;;;;;5039928;28;20550;-81
2022/12/07 00:09:11;;;;;;;23.27;15.93;;;6.40;99.90;;;;;;5054222;28;20470;-81
2022/12/07 00:11:38;;;;;;;25.47;17.30;;;6.40;99.90;;;;;;5059519;28;21006;-81
2022/12/07 00:14:07;;;;;;;22.80;16.03;;;6.40;99.90;;;;;;5045093;28;20460;-81
2022/12/07 00:16:36;;;;;;;23.20;16.70;;;6.40;99.90;;;;;;5039447;28;20903;-82
2022/12/07 00:19:03;;;;;;;17.63;13.87;;;6.40;99.90;;;;;;5050813;28;20474;-82
2022/12/07 00:21:33;;;;;;;20.23;14.17;;;6.40;99.90;;;;;;5048694;28;20961;-81
2022/12/07 00:24:00;;;;;;;24.10;15.00;;;6.40;99.90;;;;;;5038406;28;20466;-81
2022/12/07 00:26:28;;;;;;;21.43;14.43;;;6.40;99.90;;;;;;5039154;28;20509;-82
2022/12/07 00:28:57;;;;;;;22.50;15.50;;;6.50;99.90;;;;;;5037827;28;20471;-82
2022/12/07 00:31:27;;;;;;;19.20;14.97;;;6.50;99.90;;;;;;5044878;28;20489;-81
2022/12/07 00:33:55;;;;;;;20.47;14.13;;;6.50;99.90;;;;;;5057920;28;20454;-82
2022/12/07 00:36:23;;;;;;;17.93;13.00;;;6.50;99.90;;;;;;5054228;28;20452;-82
2022/12/07 00:38:50;;;;;;;23.37;15.40;;;6.40;99.90;;;;;;5048228;28;20483;-82
2022/12/07 00:41:19;;;;;;;19.13;13.50;;;6.40;99.90;;;;;;5057716;28;20962;-81
2022/12/07 00:43:47;;;;;;;19.67;13.57;;;6.40;99.90;;;;;;5056867;28;20458;-81
2022/12/07 00:46:15;;;;;;;21.13;13.93;;;6.40;99.90;;;;;;5054565;28;20455;-82
2022/12/07 00:48:42;;;;;;;16.37;13.40;;;6.40;99.90;;;;;;5037397;28;20584;-81
2022/12/07 00:51:11;;;;;;;19.13;13.90;;;6.40;99.90;;;;;;5039635;28;20823;-81
2022/12/07 00:53:39;;;;;;;19.47;14.20;;;6.40;99.90;;;;;;5057490;28;20452;-82
2022/12/07 00:56:06;;;;;;;17.80;13.90;;;6.50;99.90;;;;;;5055479;28;20532;-80
2022/12/07 00:58:33;;;;;;;16.87;13.07;;;6.60;99.90;;;;;;5053367;28;20479;-80
2022/12/07 01:01:01;;;;;;;16.90;13.23;;;6.60;99.90;;;;;;5043465;28;20460;-80
2022/12/07 01:03:28;;;;;;;21.93;13.23;;;6.50;99.90;;;;;;5056903;28;20445;-81
2022/12/07 01:05:56;;;;;;;17.00;12.30;;;6.50;99.90;;;;;;5043664;28;20541;-82
2022/12/07 01:08:25;;;;;;;19.30;12.30;;;6.40;99.90;;;;;;5062039;28;20997;-82
2022/12/07 01:11:00;;;;;;;23.60;14.77;;;6.40;99.90;;;;;;5044223;28;20461;-82
2022/12/07 01:13:28;;;;;;;19.30;14.43;;;6.40;99.90;;;;;;5043941;28;20502;-81
2022/12/07 01:15:59;;;;;;;20.40;14.20;;;6.40;99.90;;;;;;5060633;28;20545;-82
2022/12/07 01:18:26;;;;;;;20.20;13.73;;;6.50;99.90;;;;;;5063057;28;20497;-82
2022/12/07 01:20:59;;;;;;;27.93;14.10;;;6.60;99.90;;;;;;5042745;28;20458;-82
2022/12/07 01:23:27;;;;;;;24.90;16.60;;;6.60;99.90;;;;;;5036877;28;20451;-82
2022/12/07 01:25:57;;;;;;;16.17;13.17;;;6.60;99.90;;;;;;5051765;28;20465;-81
2022/12/07 01:28:25;;;;;;;16.60;12.93;;;6.60;99.90;;;;;;5049911;28;20491;-82
2022/12/07 01:31:03;;;;;;;23.40;15.93;;;6.60;99.90;;;;;;5036335;28;20454;-82
2022/12/07 01:33:32;;;;;;;20.73;14.63;;;6.60;99.90;;;;;;5042410;28;20539;-82
2022/12/07 01:36:02;;;;;;;23.47;15.50;;;6.60;99.90;;;;;;5056699;28;20454;-82
2022/12/07 01:38:31;;;;;;;23.40;16.20;;;6.60;99.90;;;;;;5050463;28;20523;-82
2022/12/07 01:40:59;;;;;;;19.93;15.93;;;6.60;99.90;;;;;;5037438;28;20470;-82
2022/12/07 01:43:29;;;;;;;21.30;17.47;;;6.60;99.90;;;;;;5040709;28;20443;-82
2022/12/07 01:45:56;;;;;;;19.10;15.47;;;6.60;99.90;;;;;;5056507;28;20533;-82
2022/12/07 01:48:26;;;;;;;22.60;16.80;;;6.50;99.90;;;;;;5039827;28;20450;-81
2022/12/07 01:50:55;;;;;;;18.80;15.03;;;6.60;99.90;;;;;;5056592;28;20451;-81
2022/12/07 01:53:25;;;;;;;24.87;15.90;;;6.50;99.90;;;;;;5054129;28;20498;-82
2022/12/07 01:55:55;;;;;;;22.80;16.10;;;6.60;99.90;;;;;;5055805;28;20454;-82
2022/12/07 01:58:22;;;;;;;21.13;16.47;;;6.60;99.90;;;;;;5038490;28;20538;-82
2022/12/07 02:00:49;;;;;;;20.73;15.50;;;6.60;99.90;;;;;;5055802;28;20886;-81
2022/12/07 02:03:20;;;;;;;19.03;14.73;;;6.50;99.90;;;;;;5050966;28;20448;-81
2022/12/07 02:05:48;;;;;;;23.73;15.93;;;6.50;99.90;;;;;;5033823;28;20455;-81
2022/12/07 02:08:16;;;;;;;20.60;15.13;;;6.60;99.90;;;;;;5049834;28;20513;-82
2022/12/07 02:10:42;;;;;;;19.47;14.03;;;6.50;99.90;;;;;;5049256;28;20454;-82
2022/12/07 02:13:14;;;;;;;21.10;15.70;;;6.60;99.90;;;;;;5035316;28;20487;-82
2022/12/07 02:15:52;;;;;;;19.13;15.00;;;6.60;99.90;;;;;;5053756;28;20811;-82
2022/12/07 02:18:25;;;;;;;20.77;14.90;;;6.60;99.90;;;;;;5052330;28;20572;-81
2022/12/07 02:20:57;;;;;;;22.07;15.73;;;6.40;99.90;;;;;;5035162;28;20457;-82
2022/12/07 02:23:40;;;;;;;22.87;15.47;;;6.40;99.90;;;;;;5036639;28;20548;-82
2022/12/07 02:26:44;;;;;;;20.10;14.50;;;6.40;99.90;;;;;;5035342;28;20449;-82
2022/12/07 02:29:21;;;;;;;21.20;16.33;;;6.50;99.90;;;;;;5033277;28;20475;-81
2022/12/07 02:31:57;;;;;;;17.50;13.57;;;6.50;99.90;;;;;;5048120;28;20465;-81
2022/12/07 02:34:33;;;;;;;19.20;15.97;;;6.40;99.90;;;;;;5055155;28;20998;-81
2022/12/07 02:37:07;;;;;;;25.40;16.17;;;6.40;99.90;;;;;;5042223;28;20832;-81
2022/12/07 02:39:41;;;;;;;18.70;14.23;;;6.30;99.90;;;;;;5054405;28;21027;-81
2022/12/07 02:42:14;;;;;;;21.80;15.97;;;6.40;99.90;;;;;;5039721;28;20540;-82
2022/12/07 02:44:44;;;;;;;23.50;15.77;;;6.40;99.90;;;;;;5035826;28;20460;-82
2022/12/07 02:47:15;;;;;;;22.00;15.30;;;6.30;99.90;;;;;;5047274;28;20964;-82
2022/12/07 02:49:42;;;;;;;19.17;13.90;;;6.30;99.90;;;;;;5036402;28;20470;-81
2022/12/07 02:52:09;;;;;;;17.40;14.67;;;6.30;99.90;;;;;;5054990;28;20488;-81
2022/12/07 02:54:36;;;;;;;22.10;14.73;;;6.20;99.90;;;;;;5054514;28;20845;-80
2022/12/07 02:57:14;;;;;;;19.57;14.97;;;6.20;99.90;;;;;;5039653;28;20473;-81
2022/12/07 02:59:54;;;;;;;17.50;13.10;;;6.20;99.90;;;;;;5053727;28;20478;-81
2022/12/07 03:02:29;;;;;;;17.10;13.67;;;6.20;99.90;;;;;;5033958;28;20453;-80
2022/12/07 03:05:08;;;;;;;21.07;14.93;;;6.10;99.90;;;;;;5042524;28;20463;-81
2022/12/07 03:07:40;;;;;;;18.03;12.50;;;6.00;99.90;;;;;;5044172;28;20459;-80
2022/12/07 03:10:15;;;;;;;20.90;14.70;;;6.00;99.90;;;;;;5042990;28;20473;-81
2022/12/07 03:12:50;;;;;;;16.00;12.47;;;6.00;99.90;;;;;;5053853;28;20487;-81
2022/12/07 03:15:26;;;;;;;15.10;12.33;;;5.90;99.90;;;;;;5044720;28;20458;-81
2022/12/07 03:17:56;;;;;;;18.20;12.93;;;5.90;99.90;;;;;;5035498;28;20455;-80
2022/12/07 03:20:26;;;;;;;16.77;13.27;;;5.80;99.90;;;;;;5043966;28;20474;-80
2022/12/07 03:22:55;;;;;;;17.67;13.43;;;5.70;99.90;;;;;;5052104;28;20850;-80
2022/12/07 03:25:22;;;;;;;19.13;14.63;;;5.60;99.90;;;;;;5054165;28;20458;-82
2022/12/07 03:27:55;;;;;;;19.80;13.90;;;5.50;99.90;;;;;;5044498;28;20837;-80
2022/12/07 03:30:28;;;;;;;18.43;13.13;;;5.40;99.90;;;;;;5053455;28;20891;-82
2022/12/07 03:33:00;;;;;;;16.23;12.70;;;5.40;99.90;;;;;;5051715;28;20899;-81
2022/12/07 03:35:32;;;;;;;15.87;13.43;;;5.30;99.90;;;;;;5033653;28;20540;-82
2022/12/07 03:38:03;;;;;;;18.27;13.70;;;5.30;99.90;;;;;;5041879;28;20456;-82
2022/12/07 03:40:34;;;;;;;16.63;12.37;;;5.30;99.90;;;;;;5029357;28;20899;-80
2022/12/07 03:43:02;;;;;;;15.67;12.40;;;5.20;99.90;;;;;;5034567;28;20462;-82
2022/12/07 03:45:39;;;;;;;19.03;14.20;;;5.10;99.90;;;;;;5053023;28;20536;-82
2022/12/07 03:48:12;;;;;;;19.77;14.33;;;5.10;99.90;;;;;;5042481;28;20455;-82
2022/12/07 03:50:44;;;;;;;17.00;12.03;;;5.00;99.90;;;;;;5053835;28;21005;-81
2022/12/07 03:53:16;;;;;;;16.17;13.00;;;4.90;99.90;;;;;;5046932;28;20486;-82
2022/12/07 03:55:46;;;;;;;18.33;12.77;;;4.90;99.90;;;;;;5033244;28;20825;-81
2022/12/07 03:58:16;;;;;;;21.00;13.37;;;4.80;99.90;;;;;;5038770;28;20458;-81
2022/12/07 04:00:45;;;;;;;19.30;14.00;;;4.80;99.90;;;;;;5013607;28;20455;-82
2022/12/07 04:03:12;;;;;;;20.83;14.60;;;4.80;99.90;;;;;;5024346;28;20459;-82
2022/12/07 04:05:40;;;;;;;22.47;16.07;;;4.80;99.90;;;;;;5052323;28;20460;-82
2022/12/07 04:08:07;;;;;;;24.30;13.70;;;4.80;99.90;;;;;;5052138;28;20459;-81
2022/12/07 04:10:34;;;;;;;17.00;14.43;;;4.80;99.90;;;;;;5053056;28;20997;-81
2022/12/07 04:13:00;;;;;;;21.03;15.20;;;4.90;99.90;;;;;;5038827;28;20493;-81
2022/12/07 04:15:27;;;;;;;20.50;14.00;;;5.00;99.90;;;;;;5035982;28;20454;-81
2022/12/07 04:17:55;;;;;;;17.83;14.37;;;5.00;99.90;;;;;;5039690;28;20459;-80
2022/12/07 04:20:23;;;;;;;20.50;14.90;;;5.10;99.90;;;;;;5033671;28;20477;-81
2022/12/07 04:22:50;;;;;;;19.80;14.20;;;5.10;99.90;;;;;;5046266;28;20478;-81
2022/12/07 04:25:16;;;;;;;20.50;14.47;;;5.10;99.90;;;;;;5052794;28;20457;-81
2022/12/07 04:27:43;;;;;;;18.33;12.80;;;5.10;99.90;;;;;;5044152;28;20447;-81
2022/12/07 04:30:10;;;;;;;19.03;13.97;;;5.10;99.90;;;;;;5045872;28;20998;-81
2022/12/07 04:32:37;;;;;;;16.90;13.27;;;5.20;99.90;;;;;;5033183;28;20479;-82
2022/12/07 04:35:06;;;;;;;19.80;14.20;;;5.20;99.90;;;;;;5032867;28;20449;-82
2022/12/07 04:37:33;;;;;;;17.03;12.90;;;5.20;99.90;;;;;;5047748;28;20458;-81
2022/12/07 04:40:00;;;;;;;19.60;13.33;;;5.20;99.90;;;;;;5032946;28;20478;-81
2022/12/07 04:42:27;;;;;;;16.30;13.63;;;5.20;99.90;;;;;;5033890;28;20461;-81
2022/12/07 04:44:53;;;;;;;20.07;13.43;;;5.20;99.90;;;;;;5038449;28;20460;-81
2022/12/07 04:47:20;;;;;;;18.00;13.13;;;5.20;99.90;;;;;;5036227;28;20460;-81
2022/12/07 04:49:47;;;;;;;15.30;11.63;;;5.20;99.90;;;;;;5036027;28;20491;-80
2022/12/07 04:52:15;;;;;;;22.00;13.40;;;5.30;99.90;;;;;;5036632;28;20845;-81
2022/12/07 04:54:42;;;;;;;21.10;13.47;;;5.30;99.90;;;;;;5055530;28;20458;-82
2022/12/07 04:57:09;;;;;;;16.93;11.43;;;5.30;99.90;;;;;;5038789;28;20453;-81
2022/12/07 04:59:36;;;;;;;18.13;12.37;;;5.30;99.90;;;;;;5036370;28;20475;-81
2022/12/07 05:02:02;;;;;;;15.40;11.83;;;5.40;99.90;;;;;;5035655;28;20452;-82
2022/12/07 05:04:29;;;;;;;20.10;13.10;;;5.40;99.90;;;;;;5055325;28;20454;-80
2022/12/07 05:06:56;;;;;;;17.40;12.53;;;5.40;99.90;;;;;;5054377;28;20453;-80
2022/12/07 05:09:24;;;;;;;18.83;13.53;;;5.40;99.90;;;;;;5038016;28;20472;-80
2022/12/07 05:11:51;;;;;;;18.40;13.13;;;5.40;99.90;;;;;;5040657;28;21021;-80
2022/12/07 05:14:20;;;;;;;20.23;13.70;;;5.40;99.90;;;;;;5069591;28;20525;-81
2022/12/07 05:16:49;;;;;;;19.87;13.80;;;5.40;99.90;;;;;;5060998;28;20452;-81
2022/12/07 05:19:17;;;;;;;22.43;13.40;;;5.40;99.90;;;;;;5053694;28;20482;-81
2022/12/07 05:21:44;;;;;;;22.40;14.67;;;5.30;99.90;;;;;;5057470;28;20458;-81
2022/12/07 05:24:13;;;;;;;18.70;12.77;;;5.30;99.90;;;;;;5057049;28;20830;-81
2022/12/07 05:26:41;;;;;;;21.63;13.00;;;5.30;99.90;;;;;;5045854;28;20464;-81
2022/12/07 05:29:08;;;;;;;20.90;12.50;;;5.20;99.90;;;;;;5057637;28;20469;-81
2022/12/07 05:31:35;;;;;;;17.90;13.53;;;5.20;99.90;;;;;;5057548;28;20445;-82
2022/12/07 05:34:02;;;;;;;19.70;14.30;;;5.10;99.90;;;;;;5058669;28;20491;-83
2022/12/07 05:36:30;;;;;;;19.70;12.60;;;5.10;99.90;;;;;;5046977;28;20452;-82
2022/12/07 05:38:57;;;;;;;19.73;13.20;;;5.10;99.90;;;;;;5076589;22;20515;-78
2022/12/07 05:44:10;;;;;;;21.53;13.23;;;5.10;99.90;;;;;;5017576;28;20457;-79
2022/12/07 05:46:37;;;;;;;18.67;13.60;;;5.20;99.90;;;;;;5007338;28;20559;-78
2022/12/07 05:49:04;;;;;;;20.20;13.33;;;5.10;99.90;;;;;;5019281;28;20544;-78
2022/12/07 05:51:31;;;;;;;23.40;14.00;;;5.20;99.90;;;;;;5045929;28;20517;-80
2022/12/07 05:53:58;;;;;;;21.13;12.03;;;5.20;99.90;;;;;;5037326;28;20494;-79
2022/12/07 05:56:26;;;;;;;23.33;13.80;;;5.30;99.90;;;;;;5036381;28;20473;-80
2022/12/07 06:01:38;;;;;;;20.67;12.73;;;5.20;99.90;;;;;;5035677;28;20446;-80
2022/12/07 06:04:05;;;;;;;20.00;13.10;;;5.30;99.90;;;;;;5036293;28;20828;-78
2022/12/07 06:06:32;;;;;;;23.60;15.70;;;5.20;99.90;;;;;;5036385;28;20450;-79
2022/12/07 06:08:59;;;;;;;23.90;15.37;;;5.20;99.90;;;;;;5036312;28;20448;-78
2022/12/07 06:14:10;;;;;;;20.63;12.97;;;5.30;99.90;;;;;;5037128;28;20899;-78
2022/12/07 06:16:38;;;;;;;21.33;13.50;;;5.30;99.90;;;;;;5037275;28;20445;-79
2022/12/07 06:19:05;;;;;;;24.03;13.67;;;5.30;99.90;;;;;;5034219;28;20542;-78
2022/12/07 06:21:31;;;;;;;18.57;11.63;;;5.30;99.90;;;;;;5048357;28;20450;-80
2022/12/07 06:23:58;;;;;;;20.93;13.33;;;5.40;99.90;;;;;;5056964;28;20454;-79
2022/12/07 06:26:25;;;;;;;18.77;11.93;;;5.40;99.90;;;;;;5042418;28;20476;-78
2022/12/07 06:28:52;;;;;;;19.93;12.43;;;5.40;99.90;;;;;;5038164;28;20455;-79
2022/12/07 06:31:19;;;;;;;18.50;13.17;;;5.40;99.90;;;;;;5055605;28;20993;-79
2022/12/07 06:33:47;;;;;;;22.23;12.30;;;5.40;99.90;;;;;;5039504;28;20565;-79
2022/12/07 06:36:14;;;;;;;22.47;13.20;;;5.40;99.90;;;;;;5034100;28;20534;-78
2022/12/07 06:38:41;;;;;;;16.73;11.90;;;5.40;99.90;;;;;;5027017;28;20538;-79
2022/12/07 06:41:08;;;;;;;20.53;11.83;;;5.50;99.90;;;;;;5054823;28;20934;-78
2022/12/07 06:43:35;;;;;;;20.73;12.53;;;5.40;99.90;;;;;;5058064;28;20549;-82
2022/12/07 06:46:03;;;;;;;20.77;12.87;;;5.50;99.90;;;;;;5047918;28;20479;-80
2022/12/07 06:48:30;;;;;;;20.00;12.50;;;5.40;99.90;;;;;;5035853;28;20807;-79
2022/12/07 06:50:58;;;;;;;22.33;13.73;;;5.40;99.90;;;;;;5038403;28;20480;-79
2022/12/07 06:53:25;;;;;;;21.80;12.93;;;5.50;99.90;;;;;;5035370;28;20502;-79
2022/12/07 06:55:52;;;;;;;18.97;11.43;;;5.50;99.90;;;;;;5034975;28;20459;-79
2022/12/07 06:58:19;;;;;;;16.53;11.30;;;5.40;99.90;;;;;;5034669;28;20458;-78
2022/12/07 07:00:46;;;;;;;17.53;11.23;;;5.40;99.90;;;;;;5033534;28;20551;-80
2022/12/07 07:03:13;;;;;;;17.57;11.37;;;5.40;99.90;;;;;;5039914;28;20514;-79
2022/12/07 07:05:40;;;;;;;16.93;12.03;;;5.40;99.90;;;;;;5029468;28;20553;-79
2022/12/07 07:08:08;;;;;;;23.00;12.90;;;5.30;99.90;;;;;;5033015;28;20484;-80
2022/12/07 07:10:35;;;;;;;19.60;11.27;;;5.20;99.90;;;;;;5027869;28;20508;-79
2022/12/07 07:13:05;;;;;;;17.77;11.07;;;5.10;99.90;;;;;;5022148;28;20908;-79
2022/12/07 07:15:32;;;;;;;15.87;10.50;;;5.10;99.90;;;;;;5033644;28;20455;-79
2022/12/07 07:17:59;;;;;;;22.30;10.83;;;5.20;99.90;;;;;;5029257;28;20455;-82
2022/12/07 07:20:26;;;;;;;22.60;10.73;;;5.20;99.90;;;;;;5027328;28;20476;-78
2022/12/07 07:22:55;;;;;;;17.90;9.03;;;5.20;99.90;;;;;;5026870;28;20951;-79
2022/12/07 07:25:24;;;;;;;11.93;9.30;;;5.20;99.90;;;;;;5032647;28;20545;-79
2022/12/07 07:27:50;;;;;;;17.20;9.73;;;5.30;99.90;;;;;;5033662;28;20520;-78
2022/12/07 07:30:18;;;;;;;14.63;9.63;;;5.40;99.90;;;;;;5034437;28;20479;-77
2022/12/07 07:32:44;;;;;;;15.83;8.73;;;5.40;99.90;;;;;;5030437;28;20458;-81
2022/12/07 07:35:12;;;;;;;14.40;9.37;;;5.30;99.90;;;;;;5014061;28;20574;-77
2022/12/07 07:37:38;;;;;;;14.87;8.50;;;5.30;99.90;;;;;;5025751;28;20546;-80
2022/12/07 07:40:07;;;;;;;18.43;8.80;;;5.40;99.90;;;;;;5033796;28;20513;-79
2022/12/07 07:42:35;;;;;;;15.20;7.80;;;5.40;99.90;;;;;;5035517;28;20446;-78
2022/12/07 07:45:02;;;;;;;13.10;9.63;;;5.40;99.90;;;;;;5034361;28;20508;-77
2022/12/07 07:47:29;;;;;;;14.23;9.70;;;5.40;99.90;;;;;;5034446;28;20452;-78
2022/12/07 07:49:56;;;;;;;17.17;8.50;;;5.30;99.90;;;;;;5034192;28;20462;-77
2022/12/07 07:52:23;;;;;;;16.10;9.13;;;5.30;99.90;;;;;;5034766;28;20445;-79
2022/12/07 07:54:50;;;;;;;17.80;10.37;;;5.30;99.90;;;;;;5034439;28;20482;-79
2022/12/07 07:57:17;;;;;;;15.50;9.30;;;5.20;99.90;;;;;;5040316;28;20525;-78
2022/12/07 07:59:45;;;;;;;15.40;8.20;;;5.20;99.90;;;;;;5052862;28;20549;-78
2022/12/07 08:02:15;;;;;;;28.53;9.20;;;5.20;99.90;;;;;;5051633;28;20467;-78
2022/12/07 08:04:42;;;;;;;15.83;8.63;;;5.30;99.90;;;;;;5052130;28;20442;-79
2022/12/07 08:07:09;;;;;;;14.30;8.80;;;5.30;99.90;;;;;;5047346;28;20481;-78
2022/12/07 08:09:36;;;;;;;14.50;8.20;;;5.40;99.90;;;;;;5032709;28;20477;-78
2022/12/07 08:12:03;;;;;;;19.60;9.90;;;5.50;99.90;;;;;;5034371;28;21014;-78
2022/12/07 08:14:31;;;;;;;15.77;8.20;;;5.50;99.90;;;;;;5034071;28;20492;-80
2022/12/07 08:17:00;;;;;;;14.13;9.43;;;5.60;99.90;;;;;;5037377;28;20533;-80
2022/12/07 08:19:27;;;;;;;12.93;7.70;;;5.60;99.90;;;;;;5056473;28;20537;-79
2022/12/07 08:21:55;;;;;;;15.53;9.07;;;5.60;99.90;;;;;;5056627;28;20454;-79
2022/12/07 08:24:22;;;;;;;16.40;8.57;;;5.70;99.90;;;;;;5056863;28;20450;-79
2022/12/07 08:26:49;;;;;;;15.50;8.03;;;5.70;99.90;;;;;;5055980;28;20572;-79
2022/12/07 08:29:16;;;;;;;12.20;8.50;;;5.70;99.90;;;;;;5056988;28;20482;-78
2022/12/07 08:31:43;;;;;;;18.33;10.00;;;5.80;99.90;;;;;;5057238;28;20832;-78
2022/12/07 08:34:13;;;;;;;13.80;9.17;;;5.90;99.90;;;;;;5056936;28;20484;-79
2022/12/07 08:36:40;;;;;;;19.93;9.33;;;6.00;99.90;;;;;;5056620;28;20455;-78
2022/12/07 08:39:07;;;;;;;16.00;9.07;;;6.00;99.90;;;;;;5036515;28;20566;-78
2022/12/07 08:41:34;;;;;;;16.50;8.70;;;6.10;99.90;;;;;;5037877;28;20440;-78
2022/12/07 08:44:01;;;;;;;16.50;8.30;;;6.10;99.90;;;;;;5043055;28;20547;-79
2022/12/07 08:46:36;;;;;;;18.20;8.30;;;6.20;99.90;;;;;;5038996;28;20516;-79
2022/12/07 08:49:06;;;;;;;15.07;9.07;;;6.30;99.90;;;;;;5037332;28;20466;-77
2022/12/07 08:51:35;;;;;;;14.60;6.93;;;6.20;99.90;;;;;;5037061;28;20533;-79
2022/12/07 08:54:04;;;;;;;17.00;8.77;;;6.20;99.90;;;;;;5037030;28;20504;-80
2022/12/07 08:56:32;;;;;;;16.20;8.40;;;6.30;99.90;;;;;;5036968;28;20631;-78
2022/12/07 08:58:59;;;;;;;14.30;8.03;;;6.30;99.90;;;;;;5055048;28;20497;-79
2022/12/07 09:01:26;;;;;;;14.40;8.00;;;6.40;99.90;;;;;;5057043;28;20455;-76
2022/12/07 09:03:53;;;;;;;13.40;7.03;;;6.30;99.90;;;;;;5057086;28;20512;-77
2022/12/07 09:06:20;;;;;;;16.07;8.83;;;6.40;99.90;;;;;;5056681;28;20488;-81
2022/12/07 09:08:51;;;;;;;14.50;8.50;;;6.40;99.90;;;;;;5055492;28;20840;-78
2022/12/07 09:11:18;;;;;;;13.90;8.10;;;6.40;99.90;;;;;;5056628;28;20474;-77
2022/12/07 09:13:44;;;;;;;12.13;7.17;;;6.50;99.90;;;;;;5056324;28;20531;-79
2022/12/07 09:16:11;;;;;;;14.87;8.23;;;6.60;99.90;;;;;;5056517;28;20455;-78
2022/12/07 09:18:39;;;;;;;17.13;7.30;;;6.70;99.90;;;;;;5055837;28;20542;-78
2022/12/07 09:21:05;;;;;;;14.97;7.70;;;6.90;99.90;;;;;;5057138;28;20584;-78
2022/12/07 09:23:32;;;;;;;12.27;6.90;;;7.10;99.90;;;;;;5056848;28;20457;-78
2022/12/07 09:26:02;;;;;;;12.43;7.70;;;7.10;99.90;;;;;;5057274;28;20585;-79
2022/12/07 09:28:29;;;;;;;14.03;6.60;;;7.10;99.90;;;;;;5055107;28;20460;-81
2022/12/07 09:30:56;;;;;;;15.60;8.90;;;7.20;99.90;;;;;;5055848;28;20472;-78
2022/12/07 09:33:22;;;;;;;12.00;6.87;;;7.20;99.90;;;;;;5056146;28;20452;-78
2022/12/07 09:35:51;;;;;;;10.90;7.90;;;7.20;99.90;;;;;;5056744;28;20497;-81
2022/12/07 09:38:19;;;;;;;15.80;8.73;;;7.20;99.90;;;;;;5042320;28;20452;-78
2022/12/07 09:40:46;;;;;;;14.73;8.43;;;7.00;99.90;;;;;;5034095;28;20477;-78
2022/12/07 09:43:17;;;;;;;15.50;7.80;;;7.00;99.90;;;;;;5034366;28;20989;-78
2022/12/07 09:45:47;;;;;;;11.80;7.67;;;7.20;99.90;;;;;;5036365;28;20437;-79
2022/12/07 09:48:19;;;;;;;14.53;7.83;;;7.30;99.90;;;;;;5048176;28;20456;-82
2022/12/07 09:50:47;;;;;;;9.33;7.93;;;7.30;99.90;;;;;;5056601;28;20498;-81
2022/12/07 09:53:18;;;;;;;9.43;7.23;;;7.40;99.90;;;;;;5055859;28;20459;-79
2022/12/07 09:55:45;;;;;;;11.30;6.90;;;7.30;99.90;;;;;;5056107;28;20551;-78
2022/12/07 09:58:20;;;;;;;12.90;8.50;;;7.50;99.90;;;;;;5044498;28;20451;-78
2022/12/07 10:00:46;;;;;;;9.40;7.23;;;7.60;99.90;;;;;;5036106;28;21000;-81
2022/12/07 10:03:14;;;;;;;15.83;8.10;;;7.50;99.90;;;;;;5035832;28;20555;-79
2022/12/07 10:05:45;;;;;;;15.70;7.50;;;7.30;99.90;;;;;;5037069;28;20462;-79
2022/12/07 10:08:12;;;;;;;11.40;7.13;;;7.50;99.90;;;;;;5037333;28;20464;-79
2022/12/07 10:10:39;;;;;;;10.97;6.80;;;7.60;99.90;;;;;;5037983;28;21042;-79
2022/12/07 10:13:08;;;;;;;11.23;6.87;;;7.40;99.90;;;;;;5038505;28;20452;-77
2022/12/07 10:15:49;;;;;;;10.30;7.50;;;7.30;99.90;;;;;;5039813;28;20582;-81
2022/12/07 10:18:28;;;;;;;9.80;6.00;;;7.40;99.90;;;;;;5036469;28;20491;-79
2022/12/07 10:21:10;;;;;;;14.13;6.90;;;7.60;99.90;;;;;;5036229;28;20908;-79
2022/12/07 10:23:39;;;;;;;15.73;6.20;;;7.60;99.90;;;;;;5036435;28;20992;-80
2022/12/07 10:26:27;;;;;;;20.57;7.47;;;7.90;99.90;;;;;;5035965;28;20514;-80
2022/12/07 10:28:54;;;;;;;13.50;5.93;;;7.70;99.90;;;;;;5052495;28;20956;-79
2022/12/07 10:31:24;;;;;;;9.20;6.10;;;7.90;99.90;;;;;;5056100;28;20474;-79
2022/12/07 10:33:53;;;;;;;15.40;6.00;;;7.90;99.90;;;;;;5055483;28;20546;-79
2022/12/07 10:36:23;;;;;;;9.83;5.93;;;7.70;99.90;;;;;;5055022;28;20451;-80
2022/12/07 10:38:52;;;;;;;7.23;5.50;;;7.70;99.90;;;;;;5038894;28;20503;-79
2022/12/07 10:41:19;;;;;;;15.37;5.17;;;7.90;99.90;;;;;;5034354;28;20453;-79
2022/12/07 10:43:52;;;;;;;8.67;5.03;;;7.90;99.90;;;;;;5034902;28;20448;-79
2022/12/07 10:46:54;;;;;;;10.03;5.10;;;8.00;99.90;;;;;;5035335;28;20868;-79
2022/12/07 10:49:55;;;;;;;11.47;5.50;;;7.80;99.90;;;;;;5035381;28;20478;-79
2022/12/07 10:52:33;;;;;;;11.03;5.70;;;7.80;99.90;;;;;;5035570;28;20480;-78
2022/12/07 10:55:15;;;;;;;10.90;5.77;;;7.90;99.90;;;;;;5035360;28;20475;-78
2022/12/07 10:58:12;;;;;;;12.60;7.53;;;7.80;99.90;;;;;;5040359;28;20708;-78
2022/12/07 11:00:44;;;;;;;11.40;7.33;;;7.60;99.90;;;;;;5016296;28;20557;-77
2022/12/07 11:03:31;;;;;;;11.13;5.77;;;7.60;99.90;;;;;;5034944;28;20455;-80
2022/12/07 11:06:05;;;;;;;11.07;5.13;;;7.80;99.90;;;;;;5035291;28;20546;-77
2022/12/07 11:08:45;;;;;;;8.73;4.40;;;7.70;99.90;;;;;;5035409;28;20470;-79
2022/12/07 11:11:17;;;;;;;8.60;4.50;;;7.60;99.90;;;;;;5035653;28;20486;-79
2022/12/07 11:13:51;;;;;;;10.73;5.10;;;7.70;99.90;;;;;;5035415;28;20503;-78
2022/12/07 11:16:26;;;;;;;15.53;4.27;;;7.80;99.90;;;;;;5035169;28;20578;-78
2022/12/07 11:19:07;;;;;;;7.50;4.37;;;7.80;99.90;;;;;;5037010;28;20550;-78
2022/12/07 11:21:44;;;;;;;8.23;4.30;;;7.80;99.90;;;;;;5046637;28;20572;-80
2022/12/07 11:24:16;;;;;;;9.33;4.80;;;7.90;99.90;;;;;;5054096;28;20462;-81
2022/12/07 11:26:56;;;;;;;8.70;4.67;;;8.10;99.90;;;;;;5054747;28;20960;-78
2022/12/07 11:29:40;;;;;;;8.70;4.10;;;8.20;99.90;;;;;;5035352;28;20476;-78
2022/12/07 11:32:15;;;;;;;5.70;3.40;;;8.20;99.90;;;;;;5034590;28;20511;-79
2022/12/07 11:34:56;;;;;;;13.80;4.10;;;8.30;99.90;;;;;;5034468;28;20488;-79
2022/12/07 11:37:30;;;;;;;9.00;4.60;;;8.30;99.90;;;;;;5036694;28;20450;-78
2022/12/07 11:40:02;;;;;;;7.13;3.50;;;8.30;99.90;;;;;;5065866;23;20754;-80
2022/12/07 11:42:34;;;;;;;12.10;5.50;;;8.40;99.90;;;;;;5035313;28;20456;-81
2022/12/07 11:45:10;;;;;;;6.27;2.90;;;8.50;99.90;;;;;;5035108;28;20535;-80
2022/12/07 11:47:45;;;;;;;10.30;4.57;;;8.60;99.90;;;;;;5022400;28;20441;-80
2022/12/07 11:50:25;;;;;;;9.03;3.40;;;8.80;99.90;;;;;;5025270;28;20865;-81
2022/12/07 11:52:56;;;;;;;10.43;4.87;;;8.80;99.90;;;;;;5031615;28;20463;-81
2022/12/07 11:55:30;;;;;;;6.53;3.47;;;8.70;99.90;;;;;;5034404;28;20496;-81
2022/12/07 11:58:04;;;;;;;7.47;3.43;;;8.60;99.90;;;;;;5033824;28;20448;-81
2022/12/07 12:00:31;;;;;;;5.13;3.00;;;8.50;99.90;;;;;;5037549;28;20473;-80
2022/12/07 12:03:02;;;;;;;13.20;3.83;;;8.30;99.90;;;;;;5039411;28;20453;-81
2022/12/07 12:05:31;;;;;;;5.63;3.13;;;8.10;99.90;;;;;;5031389;28;20445;-81
2022/12/07 12:08:05;;;;;;;5.30;3.03;;;8.10;99.90;;;;;;5032815;28;20468;-81
2022/12/07 12:10:46;;;;;;;11.90;3.43;;;8.00;99.90;;;;;;5038777;28;20477;-81
2022/12/07 12:13:40;;;;;;;7.10;3.00;;;7.90;99.90;;;;;;5034359;28;20479;-81
2022/12/07 12:16:22;;;;;;;4.90;2.80;;;7.70;99.90;;;;;;5031936;28;20499;-80
2022/12/07 12:19:07;;;;;;;5.90;3.13;;;7.70;99.90;;;;;;5039319;28;20463;-81
2022/12/07 12:21:36;;;;;;;8.17;2.63;;;7.70;99.90;;;;;;5031391;28;20483;-80
2022/12/07 12:24:10;;;;;;;6.63;3.40;;;7.60;99.90;;;;;;5041695;28;20468;-80
2022/12/07 12:26:39;;;;;;;7.30;2.80;;;7.60;99.90;;;;;;5056475;28;20455;-81
2022/12/07 12:29:18;;;;;;;8.17;2.57;;;7.50;99.90;;;;;;5053518;28;21127;-80
2022/12/07 12:32:05;;;;;;;10.63;1.90;;;7.70;99.90;;;;;;5037852;28;20483;-81
2022/12/07 12:34:38;;;;;;;3.30;1.80;;;7.80;99.90;;;;;;5039501;28;20444;-81
2022/12/07 12:37:29;;;;;;;8.90;1.90;;;7.90;99.90;;;;;;5058644;28;20516;-81
2022/12/07 12:40:33;;;;;;;8.50;4.20;;;8.10;99.90;;;;;;5034910;28;20466;-80
2022/12/07 12:43:00;;;;;;;6.33;1.77;;;8.00;99.90;;;;;;5058202;28;20537;-81
2022/12/07 12:45:29;;;;;;;2.53;1.60;;;8.00;99.90;;;;;;5050169;28;20455;-81
2022/12/07 12:47:59;;;;;;;3.90;1.97;;;8.20;99.90;;;;;;5042930;28;20446;-81
2022/12/07 12:50:29;;;;;;;6.47;2.23;;;8.30;99.90;;;;;;5056874;28;20858;-81
2022/12/07 12:53:17;;;;;;;9.80;3.10;;;8.30;99.90;;;;;;5057912;28;21031;-81
2022/12/07 12:56:19;;;;;;;4.67;1.80;;;8.40;99.90;;;;;;5056812;28;20854;-80
2022/12/07 12:58:48;;;;;;;9.60;2.63;;;8.50;99.90;;;;;;5053151;28;20830;-80
2022/12/07 13:01:48;;;;;;;4.30;2.30;;;8.60;99.90;;;;;;5039736;28;21068;-80
2022/12/07 13:04:51;;;;;;;7.50;2.13;;;8.60;99.90;;;;;;5036284;28;20823;-80
2022/12/07 13:07:53;;;;;;;4.40;2.23;;;8.50;99.90;;;;;;5036790;28;20834;-80
2022/12/07 13:10:31;;;;;;;8.47;2.80;;;8.50;99.90;;;;;;5041870;28;20527;-80